sensor_id;sensor_type;location;lat;lon;timestamp;temperature;humidity
38239;DHT22;24035;48.900;9.188;2022-08-01T00:00:24;21.60;1.00
38239;DHT22;24035;48.900;9.188;2022-08-01T00:03:10;21.40;1.00
38239;DHT22;24035;48.900;9.188;2022-08-01T00:05:56;21.30;21.70
38239;DHT22;24035;48.900;9.188;2022-08-01T00:08:42;21.30;20.90
38239;DHT22;24035;48.900;9.188;2022-08-01T00:11:28;21.20;29.20
38239;DHT22;24035;48.900;9.188;2022-08-01T00:14:14;21.10;36.30
38239;DHT22;24035;48.900;9.188;2022-08-01T00:16:59;21.10;41.50
38239;DHT22;24035;48.900;9.188;2022-08-01T00:19:45;21.10;57.30
38239;DHT22;24035;48.900;9.188;2022-08-01T00:22:32;21.10;37.50
38239;DHT22;24035;48.900;9.188;2022-08-01T00:25:18;21.20;40.20
38239;DHT22;24035;48.900;9.188;2022-08-01T00:28:04;21.20;39.70
38239;DHT22;24035;48.900;9.188;2022-08-01T00:30:54;21.30;37.10
38239;DHT22;24035;48.900;9.188;2022-08-01T00:33:40;21.30;39.00
38239;DHT22;24035;48.900;9.188;2022-08-01T00:36:25;21.30;39.00
38239;DHT22;24035;48.900;9.188;2022-08-01T00:39:12;21.40;37.70
38239;DHT22;24035;48.900;9.188;2022-08-01T00:41:57;21.30;46.20
38239;DHT22;24035;48.900;9.188;2022-08-01T00:44:44;21.20;48.30
38239;DHT22;24035;48.900;9.188;2022-08-01T00:47:30;21.10;56.00
38239;DHT22;24035;48.900;9.188;2022-08-01T00:50:16;21.10;57.50
38239;DHT22;24035;48.900;9.188;2022-08-01T00:53:02;21.00;65.10
38239;DHT22;24035;48.900;9.188;2022-08-01T00:55:48;21.10;62.50
38239;DHT22;24035;48.900;9.188;2022-08-01T00:58:34;21.10;83.60
38239;DHT22;24035;48.900;9.188;2022-08-01T01:01:20;21.10;75.80
38239;DHT22;24035;48.900;9.188;2022-08-01T01:04:07;21.10;83.20
38239;DHT22;24035;48.900;9.188;2022-08-01T01:10:12;21.00;91.50
38239;DHT22;24035;48.900;9.188;2022-08-01T01:16:09;20.80;99.90
38239;DHT22;24035;48.900;9.188;2022-08-01T01:19:00;20.80;99.90
38239;DHT22;24035;48.900;9.188;2022-08-01T01:31:12;20.70;99.90
38239;DHT22;24035;48.900;9.188;2022-08-01T01:34:03;20.70;99.90
38239;DHT22;24035;48.900;9.188;2022-08-01T01:36:52;20.70;99.90
38239;DHT22;24035;48.900;9.188;2022-08-01T01:39:40;20.70;99.90
38239;DHT22;24035;48.900;9.188;2022-08-01T01:42:27;20.80;99.90
38239;DHT22;24035;48.900;9.188;2022-08-01T01:45:14;20.80;99.90
38239;DHT22;24035;48.900;9.188;2022-08-01T01:48:01;20.80;99.90
38239;DHT22;24035;48.900;9.188;2022-08-01T01:50:48;20.70;99.90
38239;DHT22;24035;48.900;9.188;2022-08-01T01:53:35;20.70;99.90
38239;DHT22;24035;48.900;9.188;2022-08-01T01:56:22;20.50;99.90
38239;DHT22;24035;48.900;9.188;2022-08-01T01:59:10;20.40;99.90
38239;DHT22;24035;48.900;9.188;2022-08-01T02:01:59;20.40;99.90
38239;DHT22;24035;48.900;9.188;2022-08-01T02:04:47;20.40;99.90
38239;DHT22;24035;48.900;9.188;2022-08-01T02:07:34;20.40;99.90
38239;DHT22;24035;48.900;9.188;2022-08-01T02:10:23;20.40;99.90
38239;DHT22;24035;48.900;9.188;2022-08-01T02:13:10;20.40;99.90
38239;DHT22;24035;48.900;9.188;2022-08-01T02:15:56;20.30;99.90
38239;DHT22;24035;48.900;9.188;2022-08-01T02:18:42;20.30;99.90
38239;DHT22;24035;48.900;9.188;2022-08-01T02:21:57;20.20;99.90
38239;DHT22;24035;48.900;9.188;2022-08-01T02:24:58;20.10;99.90
38239;DHT22;24035;48.900;9.188;2022-08-01T02:27:59;20.10;99.90
38239;DHT22;24035;48.900;9.188;2022-08-01T02:30:48;20.10;99.90
38239;DHT22;24035;48.900;9.188;2022-08-01T02:33:42;20.00;99.90
38239;DHT22;24035;48.900;9.188;2022-08-01T02:36:33;19.90;99.90
38239;DHT22;24035;48.900;9.188;2022-08-01T02:39:20;19.90;99.90
38239;DHT22;24035;48.900;9.188;2022-08-01T02:42:09;19.90;99.90
38239;DHT22;24035;48.900;9.188;2022-08-01T02:44:57;19.80;99.90
38239;DHT22;24035;48.900;9.188;2022-08-01T02:47:44;19.70;99.90
38239;DHT22;24035;48.900;9.188;2022-08-01T02:50:32;19.80;99.90
38239;DHT22;24035;48.900;9.188;2022-08-01T02:53:20;19.80;99.90
38239;DHT22;24035;48.900;9.188;2022-08-01T02:56:10;19.80;99.90
38239;DHT22;24035;48.900;9.188;2022-08-01T02:58:57;19.70;1.00
38239;DHT22;24035;48.900;9.188;2022-08-01T03:01:44;19.60;1.00
38239;DHT22;24035;48.900;9.188;2022-08-01T03:04:33;19.50;1.00
38239;DHT22;24035;48.900;9.188;2022-08-01T03:07:20;19.50;1.00
38239;DHT22;24035;48.900;9.188;2022-08-01T03:10:06;19.50;1.00
38239;DHT22;24035;48.900;9.188;2022-08-01T03:12:54;19.40;1.00
38239;DHT22;24035;48.900;9.188;2022-08-01T03:15:42;19.30;1.00
38239;DHT22;24035;48.900;9.188;2022-08-01T03:18:29;19.30;1.00
38239;DHT22;24035;48.900;9.188;2022-08-01T03:21:17;19.20;1.00
38239;DHT22;24035;48.900;9.188;2022-08-01T03:24:05;19.20;1.00
38239;DHT22;24035;48.900;9.188;2022-08-01T03:26:53;19.20;1.00
38239;DHT22;24035;48.900;9.188;2022-08-01T03:29:41;19.30;1.00
38239;DHT22;24035;48.900;9.188;2022-08-01T03:32:29;19.30;1.00
38239;DHT22;24035;48.900;9.188;2022-08-01T03:35:15;19.30;1.00
38239;DHT22;24035;48.900;9.188;2022-08-01T03:38:02;19.20;1.00
38239;DHT22;24035;48.900;9.188;2022-08-01T03:40:53;19.20;1.00
38239;DHT22;24035;48.900;9.188;2022-08-01T03:43:46;19.10;1.00
38239;DHT22;24035;48.900;9.188;2022-08-01T03:46:39;19.00;1.00
38239;DHT22;24035;48.900;9.188;2022-08-01T03:49:31;19.00;1.00
38239;DHT22;24035;48.900;9.188;2022-08-01T03:52:18;18.90;1.00
38239;DHT22;24035;48.900;9.188;2022-08-01T03:55:06;18.90;1.00
38239;DHT22;24035;48.900;9.188;2022-08-01T03:57:53;18.80;1.00
38239;DHT22;24035;48.900;9.188;2022-08-01T04:00:39;18.80;1.00
38239;DHT22;24035;48.900;9.188;2022-08-01T04:03:27;18.80;1.00
38239;DHT22;24035;48.900;9.188;2022-08-01T04:06:13;18.80;1.00
38239;DHT22;24035;48.900;9.188;2022-08-01T04:08:59;18.90;1.00
38239;DHT22;24035;48.900;9.188;2022-08-01T04:11:45;18.90;1.00
38239;DHT22;24035;48.900;9.188;2022-08-01T04:14:31;18.90;1.00
38239;DHT22;24035;48.900;9.188;2022-08-01T04:17:17;19.10;1.00
38239;DHT22;24035;48.900;9.188;2022-08-01T04:20:03;19.50;1.00
38239;DHT22;24035;48.900;9.188;2022-08-01T04:22:49;20.10;1.00
38239;DHT22;24035;48.900;9.188;2022-08-01T04:25:37;20.80;1.00
38239;DHT22;24035;48.900;9.188;2022-08-01T04:28:25;21.50;99.90
38239;DHT22;24035;48.900;9.188;2022-08-01T04:31:14;21.80;99.90
38239;DHT22;24035;48.900;9.188;2022-08-01T04:34:04;22.40;99.90
38239;DHT22;24035;48.900;9.188;2022-08-01T04:36:54;22.90;99.90
38239;DHT22;24035;48.900;9.188;2022-08-01T04:39:41;23.30;99.90
38239;DHT22;24035;48.900;9.188;2022-08-01T04:42:28;23.60;99.90
38239;DHT22;24035;48.900;9.188;2022-08-01T04:45:14;24.10;99.90
38239;DHT22;24035;48.900;9.188;2022-08-01T04:48:01;24.50;99.90
38239;DHT22;24035;48.900;9.188;2022-08-01T04:50:47;24.70;99.90
38239;DHT22;24035;48.900;9.188;2022-08-01T04:53:33;25.00;99.90
38239;DHT22;24035;48.900;9.188;2022-08-01T04:56:20;25.20;99.90
38239;DHT22;24035;48.900;9.188;2022-08-01T04:59:06;25.20;99.90
38239;DHT22;24035;48.900;9.188;2022-08-01T05:02:15;25.30;99.90
38239;DHT22;24035;48.900;9.188;2022-08-01T05:05:01;25.40;99.90
38239;DHT22;24035;48.900;9.188;2022-08-01T05:07:47;25.80;99.90
38239;DHT22;24035;48.900;9.188;2022-08-01T05:10:33;26.40;99.90
38239;DHT22;24035;48.900;9.188;2022-08-01T05:13:19;26.70;99.90
38239;DHT22;24035;48.900;9.188;2022-08-01T05:16:05;27.10;99.90
38239;DHT22;24035;48.900;9.188;2022-08-01T05:18:52;27.50;99.90
38239;DHT22;24035;48.900;9.188;2022-08-01T05:21:38;27.90;99.90
38239;DHT22;24035;48.900;9.188;2022-08-01T05:24:24;28.20;99.90
38239;DHT22;24035;48.900;9.188;2022-08-01T05:27:10;28.30;99.90
38239;DHT22;24035;48.900;9.188;2022-08-01T05:29:56;28.60;99.90
38239;DHT22;24035;48.900;9.188;2022-08-01T05:32:42;29.00;99.90
38239;DHT22;24035;48.900;9.188;2022-08-01T05:35:28;29.30;99.90
38239;DHT22;24035;48.900;9.188;2022-08-01T05:38:14;28.80;99.90
38239;DHT22;24035;48.900;9.188;2022-08-01T05:40:59;27.30;99.90
38239;DHT22;24035;48.900;9.188;2022-08-01T05:43:45;26.60;99.90
38239;DHT22;24035;48.900;9.188;2022-08-01T05:46:32;25.70;99.90
38239;DHT22;24035;48.900;9.188;2022-08-01T05:49:19;24.80;99.90
38239;DHT22;24035;48.900;9.188;2022-08-01T05:52:05;24.60;99.90
38239;DHT22;24035;48.900;9.188;2022-08-01T05:54:50;24.50;99.90
38239;DHT22;24035;48.900;9.188;2022-08-01T05:57:36;24.40;99.90
38239;DHT22;24035;48.900;9.188;2022-08-01T06:00:22;24.30;99.90
38239;DHT22;24035;48.900;9.188;2022-08-01T06:03:08;24.10;99.90
38239;DHT22;24035;48.900;9.188;2022-08-01T06:05:54;24.30;99.90
38239;DHT22;24035;48.900;9.188;2022-08-01T06:08:40;25.00;99.90
38239;DHT22;24035;48.900;9.188;2022-08-01T06:11:26;26.00;99.90
38239;DHT22;24035;48.900;9.188;2022-08-01T06:14:12;26.70;99.90
38239;DHT22;24035;48.900;9.188;2022-08-01T06:16:58;26.60;99.90
38239;DHT22;24035;48.900;9.188;2022-08-01T06:19:44;26.90;99.90
38239;DHT22;24035;48.900;9.188;2022-08-01T06:22:30;27.20;99.90
38239;DHT22;24035;48.900;9.188;2022-08-01T06:25:16;27.80;99.90
38239;DHT22;24035;48.900;9.188;2022-08-01T06:28:02;28.90;99.90
38239;DHT22;24035;48.900;9.188;2022-08-01T06:30:48;29.00;99.90
38239;DHT22;24035;48.900;9.188;2022-08-01T06:33:34;29.30;99.90
38239;DHT22;24035;48.900;9.188;2022-08-01T06:36:20;29.90;99.90
38239;DHT22;24035;48.900;9.188;2022-08-01T06:39:06;30.30;99.90
38239;DHT22;24035;48.900;9.188;2022-08-01T06:41:32;30.30;99.90
38239;DHT22;24035;48.900;9.188;2022-08-01T06:43:57;29.70;99.90
38239;DHT22;24035;48.900;9.188;2022-08-01T06:46:25;28.50;99.90
38239;DHT22;24035;48.900;9.188;2022-08-01T06:48:51;28.10;99.90
38239;DHT22;24035;48.900;9.188;2022-08-01T06:51:16;27.80;99.90
38239;DHT22;24035;48.900;9.188;2022-08-01T06:53:45;28.00;99.90
38239;DHT22;24035;48.900;9.188;2022-08-01T06:56:11;28.90;99.90
38239;DHT22;24035;48.900;9.188;2022-08-01T06:58:36;28.90;99.90
38239;DHT22;24035;48.900;9.188;2022-08-01T07:01:04;28.20;99.90
38239;DHT22;24035;48.900;9.188;2022-08-01T07:03:31;27.00;99.90
38239;DHT22;24035;48.900;9.188;2022-08-01T07:05:57;26.70;99.90
38239;DHT22;24035;48.900;9.188;2022-08-01T07:08:23;26.30;99.90
38239;DHT22;24035;48.900;9.188;2022-08-01T07:10:49;27.00;99.90
38239;DHT22;24035;48.900;9.188;2022-08-01T07:13:14;27.40;99.90
38239;DHT22;24035;48.900;9.188;2022-08-01T07:15:46;27.50;99.90
38239;DHT22;24035;48.900;9.188;2022-08-01T07:18:12;27.20;99.90
38239;DHT22;24035;48.900;9.188;2022-08-01T07:20:38;27.00;99.90
38239;DHT22;24035;48.900;9.188;2022-08-01T07:23:04;26.50;99.90
38239;DHT22;24035;48.900;9.188;2022-08-01T07:25:29;27.30;99.90
38239;DHT22;24035;48.900;9.188;2022-08-01T07:27:55;27.50;99.90
38239;DHT22;24035;48.900;9.188;2022-08-01T07:30:21;27.30;99.90
38239;DHT22;24035;48.900;9.188;2022-08-01T07:32:47;27.90;99.90
38239;DHT22;24035;48.900;9.188;2022-08-01T07:35:12;28.70;99.90
38239;DHT22;24035;48.900;9.188;2022-08-01T07:37:38;28.80;99.90
38239;DHT22;24035;48.900;9.188;2022-08-01T07:40:04;28.70;99.90
38239;DHT22;24035;48.900;9.188;2022-08-01T07:42:31;29.40;99.90
38239;DHT22;24035;48.900;9.188;2022-08-01T07:44:59;28.80;99.90
38239;DHT22;24035;48.900;9.188;2022-08-01T07:47:25;27.30;99.90
38239;DHT22;24035;48.900;9.188;2022-08-01T07:49:52;27.00;99.90
38239;DHT22;24035;48.900;9.188;2022-08-01T07:52:19;26.70;99.90
38239;DHT22;24035;48.900;9.188;2022-08-01T07:54:45;26.80;99.90
38239;DHT22;24035;48.900;9.188;2022-08-01T07:57:13;26.90;99.90
38239;DHT22;24035;48.900;9.188;2022-08-01T07:59:39;27.10;99.90
38239;DHT22;24035;48.900;9.188;2022-08-01T08:02:04;27.60;99.90
38239;DHT22;24035;48.900;9.188;2022-08-01T08:04:30;27.70;99.90
38239;DHT22;24035;48.900;9.188;2022-08-01T08:06:56;27.10;99.90
38239;DHT22;24035;48.900;9.188;2022-08-01T08:09:21;26.80;99.90
38239;DHT22;24035;48.900;9.188;2022-08-01T08:11:48;27.30;99.90
38239;DHT22;24035;48.900;9.188;2022-08-01T08:14:15;28.60;99.90
38239;DHT22;24035;48.900;9.188;2022-08-01T08:16:43;29.60;99.90
38239;DHT22;24035;48.900;9.188;2022-08-01T08:19:09;30.90;99.90
38239;DHT22;24035;48.900;9.188;2022-08-01T08:21:35;30.30;99.90
38239;DHT22;24035;48.900;9.188;2022-08-01T08:24:02;29.90;99.90
38239;DHT22;24035;48.900;9.188;2022-08-01T08:26:50;29.80;99.90
38239;DHT22;24035;48.900;9.188;2022-08-01T08:29:16;28.70;99.90
38239;DHT22;24035;48.900;9.188;2022-08-01T08:31:42;27.70;99.90
38239;DHT22;24035;48.900;9.188;2022-08-01T08:34:08;26.80;99.90
38239;DHT22;24035;48.900;9.188;2022-08-01T08:36:34;26.80;99.90
38239;DHT22;24035;48.900;9.188;2022-08-01T08:39:00;26.60;99.90
38239;DHT22;24035;48.900;9.188;2022-08-01T08:41:26;27.40;99.90
38239;DHT22;24035;48.900;9.188;2022-08-01T08:43:52;28.30;99.90
38239;DHT22;24035;48.900;9.188;2022-08-01T08:46:19;28.40;99.90
38239;DHT22;24035;48.900;9.188;2022-08-01T08:48:46;29.10;99.90
38239;DHT22;24035;48.900;9.188;2022-08-01T08:51:14;29.40;99.90
38239;DHT22;24035;48.900;9.188;2022-08-01T08:53:44;29.30;99.90
38239;DHT22;24035;48.900;9.188;2022-08-01T08:56:15;28.30;99.90
38239;DHT22;24035;48.900;9.188;2022-08-01T08:58:44;27.40;99.90
38239;DHT22;24035;48.900;9.188;2022-08-01T09:01:13;27.20;99.90
38239;DHT22;24035;48.900;9.188;2022-08-01T09:03:39;26.80;99.90
38239;DHT22;24035;48.900;9.188;2022-08-01T09:06:06;26.90;99.90
38239;DHT22;24035;48.900;9.188;2022-08-01T09:08:33;26.40;99.90
38239;DHT22;24035;48.900;9.188;2022-08-01T09:10:59;26.00;99.90
38239;DHT22;24035;48.900;9.188;2022-08-01T09:13:24;25.90;99.90
38239;DHT22;24035;48.900;9.188;2022-08-01T09:15:54;25.70;99.90
38239;DHT22;24035;48.900;9.188;2022-08-01T09:18:33;25.50;99.90
38239;DHT22;24035;48.900;9.188;2022-08-01T09:23:39;25.90;99.90
38239;DHT22;24035;48.900;9.188;2022-08-01T09:26:06;26.30;99.90
38239;DHT22;24035;48.900;9.188;2022-08-01T09:28:32;26.80;99.90
38239;DHT22;24035;48.900;9.188;2022-08-01T09:30:58;26.70;99.90
38239;DHT22;24035;48.900;9.188;2022-08-01T09:33:24;27.10;99.90
38239;DHT22;24035;48.900;9.188;2022-08-01T09:35:55;28.10;99.90
38239;DHT22;24035;48.900;9.188;2022-08-01T09:38:25;27.90;99.90
38239;DHT22;24035;48.900;9.188;2022-08-01T09:40:56;27.10;99.90
38239;DHT22;24035;48.900;9.188;2022-08-01T09:43:24;27.10;99.90
38239;DHT22;24035;48.900;9.188;2022-08-01T09:45:51;27.40;99.90
38239;DHT22;24035;48.900;9.188;2022-08-01T09:48:20;27.80;99.90
38239;DHT22;24035;48.900;9.188;2022-08-01T09:50:48;28.40;99.90
38239;DHT22;24035;48.900;9.188;2022-08-01T09:53:15;28.20;99.90
38239;DHT22;24035;48.900;9.188;2022-08-01T09:55:41;28.60;99.90
38239;DHT22;24035;48.900;9.188;2022-08-01T09:58:08;28.80;99.90
38239;DHT22;24035;48.900;9.188;2022-08-01T10:00:36;29.20;99.90
38239;DHT22;24035;48.900;9.188;2022-08-01T10:03:23;29.00;99.90
38239;DHT22;24035;48.900;9.188;2022-08-01T10:05:50;28.50;99.90
38239;DHT22;24035;48.900;9.188;2022-08-01T10:08:19;28.20;99.90
38239;DHT22;24035;48.900;9.188;2022-08-01T10:11:20;27.60;99.90
38239;DHT22;24035;48.900;9.188;2022-08-01T10:13:47;27.70;99.90
38239;DHT22;24035;48.900;9.188;2022-08-01T10:16:14;27.60;99.90
38239;DHT22;24035;48.900;9.188;2022-08-01T10:18:43;27.40;99.90
38239;DHT22;24035;48.900;9.188;2022-08-01T10:21:10;27.50;99.90
38239;DHT22;24035;48.900;9.188;2022-08-01T10:23:37;27.70;99.90
38239;DHT22;24035;48.900;9.188;2022-08-01T10:26:05;28.10;99.90
38239;DHT22;24035;48.900;9.188;2022-08-01T10:28:31;28.30;99.90
38239;DHT22;24035;48.900;9.188;2022-08-01T10:31:00;28.30;99.90
38239;DHT22;24035;48.900;9.188;2022-08-01T10:33:29;27.90;99.90
38239;DHT22;24035;48.900;9.188;2022-08-01T10:35:55;27.40;99.90
38239;DHT22;24035;48.900;9.188;2022-08-01T10:38:21;27.40;99.90
38239;DHT22;24035;48.900;9.188;2022-08-01T10:40:49;27.60;99.90
38239;DHT22;24035;48.900;9.188;2022-08-01T10:43:16;27.70;99.90
38239;DHT22;24035;48.900;9.188;2022-08-01T10:45:45;27.90;99.90
38239;DHT22;24035;48.900;9.188;2022-08-01T10:48:29;28.00;99.90
38239;DHT22;24035;48.900;9.188;2022-08-01T10:51:01;28.00;99.90
38239;DHT22;24035;48.900;9.188;2022-08-01T10:53:27;28.20;99.90
38239;DHT22;24035;48.900;9.188;2022-08-01T11:00:47;28.30;99.90
38239;DHT22;24035;48.900;9.188;2022-08-01T11:03:13;28.60;99.90
38239;DHT22;24035;48.900;9.188;2022-08-01T11:05:40;28.60;99.90
38239;DHT22;24035;48.900;9.188;2022-08-01T11:08:21;28.40;99.90
38239;DHT22;24035;48.900;9.188;2022-08-01T11:10:47;28.00;99.90
38239;DHT22;24035;48.900;9.188;2022-08-01T11:13:13;27.70;99.90
38239;DHT22;24035;48.900;9.188;2022-08-01T11:15:40;27.80;99.90
38239;DHT22;24035;48.900;9.188;2022-08-01T11:18:49;27.40;99.90
38239;DHT22;24035;48.900;9.188;2022-08-01T11:21:15;27.20;99.90
38239;DHT22;24035;48.900;9.188;2022-08-01T11:23:48;27.50;99.90
38239;DHT22;24035;48.900;9.188;2022-08-01T11:26:15;27.90;99.90
38239;DHT22;24035;48.900;9.188;2022-08-01T11:28:42;27.90;99.90
38239;DHT22;24035;48.900;9.188;2022-08-01T11:38:40;27.30;99.90
38239;DHT22;24035;48.900;9.188;2022-08-01T11:49:27;27.80;99.90
38239;DHT22;24035;48.900;9.188;2022-08-01T11:52:03;28.00;99.90
38239;DHT22;24035;48.900;9.188;2022-08-01T11:54:34;28.30;99.90
38239;DHT22;24035;48.900;9.188;2022-08-01T11:57:04;28.30;99.90
38239;DHT22;24035;48.900;9.188;2022-08-01T11:59:43;28.30;99.90
38239;DHT22;24035;48.900;9.188;2022-08-01T12:02:20;28.70;99.90
38239;DHT22;24035;48.900;9.188;2022-08-01T12:04:47;29.20;99.90
38239;DHT22;24035;48.900;9.188;2022-08-01T12:07:17;29.20;99.90
38239;DHT22;24035;48.900;9.188;2022-08-01T12:09:43;29.00;99.90
38239;DHT22;24035;48.900;9.188;2022-08-01T12:12:10;28.90;99.90
38239;DHT22;24035;48.900;9.188;2022-08-01T12:14:38;29.00;99.90
38239;DHT22;24035;48.900;9.188;2022-08-01T12:17:04;28.80;99.90
38239;DHT22;24035;48.900;9.188;2022-08-01T12:19:29;28.90;99.90
38239;DHT22;24035;48.900;9.188;2022-08-01T12:22:10;28.90;99.90
38239;DHT22;24035;48.900;9.188;2022-08-01T12:24:39;28.40;99.90
38239;DHT22;24035;48.900;9.188;2022-08-01T12:27:06;28.40;99.90
38239;DHT22;24035;48.900;9.188;2022-08-01T12:29:41;28.50;99.90
38239;DHT22;24035;48.900;9.188;2022-08-01T12:34:52;28.20;99.90
38239;DHT22;24035;48.900;9.188;2022-08-01T12:37:18;28.10;99.90
38239;DHT22;24035;48.900;9.188;2022-08-01T12:39:45;28.00;99.90
38239;DHT22;24035;48.900;9.188;2022-08-01T12:42:12;28.10;99.90
38239;DHT22;24035;48.900;9.188;2022-08-01T12:44:39;27.90;99.90
38239;DHT22;24035;48.900;9.188;2022-08-01T12:47:08;27.80;99.90
38239;DHT22;24035;48.900;9.188;2022-08-01T12:49:37;28.10;99.90
38239;DHT22;24035;48.900;9.188;2022-08-01T12:52:04;28.50;99.90
38239;DHT22;24035;48.900;9.188;2022-08-01T12:54:31;28.80;99.10
38239;DHT22;24035;48.900;9.188;2022-08-01T12:57:23;28.90;99.90
38239;DHT22;24035;48.900;9.188;2022-08-01T12:59:52;28.80;99.90
38239;DHT22;24035;48.900;9.188;2022-08-01T13:02:18;28.80;99.90
38239;DHT22;24035;48.900;9.188;2022-08-01T13:04:51;28.70;99.90
38239;DHT22;24035;48.900;9.188;2022-08-01T13:07:17;28.50;99.90
38239;DHT22;24035;48.900;9.188;2022-08-01T13:09:50;28.40;99.90
38239;DHT22;24035;48.900;9.188;2022-08-01T13:12:16;28.50;99.90
38239;DHT22;24035;48.900;9.188;2022-08-01T13:14:42;28.60;99.90
38239;DHT22;24035;48.900;9.188;2022-08-01T13:17:08;28.60;97.50
38239;DHT22;24035;48.900;9.188;2022-08-01T13:19:43;28.40;99.90
38239;DHT22;24035;48.900;9.188;2022-08-01T13:22:09;28.60;98.30
38239;DHT22;24035;48.900;9.188;2022-08-01T13:24:35;28.70;98.20
38239;DHT22;24035;48.900;9.188;2022-08-01T13:27:03;29.10;97.90
38239;DHT22;24035;48.900;9.188;2022-08-01T13:29:34;28.80;99.90
38239;DHT22;24035;48.900;9.188;2022-08-01T13:32:20;28.60;99.90
38239;DHT22;24035;48.900;9.188;2022-08-01T13:34:46;28.70;99.90
38239;DHT22;24035;48.900;9.188;2022-08-01T13:37:12;28.80;99.90
38239;DHT22;24035;48.900;9.188;2022-08-01T13:39:37;29.20;99.80
38239;DHT22;24035;48.900;9.188;2022-08-01T13:42:10;29.20;97.90
38239;DHT22;24035;48.900;9.188;2022-08-01T13:44:36;28.70;96.40
38239;DHT22;24035;48.900;9.188;2022-08-01T13:47:03;28.80;98.40
38239;DHT22;24035;48.900;9.188;2022-08-01T13:49:29;28.70;98.40
38239;DHT22;24035;48.900;9.188;2022-08-01T13:51:55;28.80;99.90
38239;DHT22;24035;48.900;9.188;2022-08-01T13:54:20;29.10;99.90
38239;DHT22;24035;48.900;9.188;2022-08-01T13:56:46;29.10;99.60
38239;DHT22;24035;48.900;9.188;2022-08-01T13:59:12;28.50;98.40
38239;DHT22;24035;48.900;9.188;2022-08-01T14:01:38;28.60;99.90
38239;DHT22;24035;48.900;9.188;2022-08-01T14:04:04;29.10;99.50
38239;DHT22;24035;48.900;9.188;2022-08-01T14:06:31;29.30;99.90
38239;DHT22;24035;48.900;9.188;2022-08-01T14:08:57;29.60;98.90
38239;DHT22;24035;48.900;9.188;2022-08-01T14:11:23;29.40;99.90
38239;DHT22;24035;48.900;9.188;2022-08-01T14:13:49;29.50;98.30
38239;DHT22;24035;48.900;9.188;2022-08-01T14:16:16;29.70;99.90
38239;DHT22;24035;48.900;9.188;2022-08-01T14:18:42;29.60;95.70
38239;DHT22;24035;48.900;9.188;2022-08-01T14:21:08;30.00;95.70
38239;DHT22;24035;48.900;9.188;2022-08-01T14:23:33;30.20;95.20
38239;DHT22;24035;48.900;9.188;2022-08-01T14:25:59;29.50;97.20
38239;DHT22;24035;48.900;9.188;2022-08-01T14:28:25;29.60;95.00
38239;DHT22;24035;48.900;9.188;2022-08-01T14:30:52;29.60;97.80
38239;DHT22;24035;48.900;9.188;2022-08-01T14:33:21;29.80;97.10
38239;DHT22;24035;48.900;9.188;2022-08-01T14:35:47;29.80;94.90
38239;DHT22;24035;48.900;9.188;2022-08-01T14:38:12;29.40;96.90
38239;DHT22;24035;48.900;9.188;2022-08-01T14:40:38;29.20;96.60
38239;DHT22;24035;48.900;9.188;2022-08-01T14:43:04;29.50;98.40
38239;DHT22;24035;48.900;9.188;2022-08-01T14:45:30;29.10;96.80
38239;DHT22;24035;48.900;9.188;2022-08-01T14:47:55;29.20;95.50
38239;DHT22;24035;48.900;9.188;2022-08-01T14:50:21;29.30;94.70
38239;DHT22;24035;48.900;9.188;2022-08-01T14:52:47;29.40;95.10
38239;DHT22;24035;48.900;9.188;2022-08-01T14:55:13;29.40;96.00
38239;DHT22;24035;48.900;9.188;2022-08-01T14:57:39;29.10;91.90
38239;DHT22;24035;48.900;9.188;2022-08-01T15:00:07;29.00;95.90
38239;DHT22;24035;48.900;9.188;2022-08-01T15:02:36;29.30;97.00
38239;DHT22;24035;48.900;9.188;2022-08-01T15:05:02;29.50;95.90
38239;DHT22;24035;48.900;9.188;2022-08-01T15:07:28;29.50;96.10
38239;DHT22;24035;48.900;9.188;2022-08-01T15:09:53;29.90;95.40
38239;DHT22;24035;48.900;9.188;2022-08-01T15:12:19;30.10;94.00
38239;DHT22;24035;48.900;9.188;2022-08-01T15:14:45;30.10;94.30
38239;DHT22;24035;48.900;9.188;2022-08-01T15:17:17;29.80;93.20
38239;DHT22;24035;48.900;9.188;2022-08-01T15:19:45;29.80;90.80
38239;DHT22;24035;48.900;9.188;2022-08-01T15:22:11;29.90;95.50
38239;DHT22;24035;48.900;9.188;2022-08-01T15:24:37;30.20;95.40
38239;DHT22;24035;48.900;9.188;2022-08-01T15:27:03;29.70;94.00
38239;DHT22;24035;48.900;9.188;2022-08-01T15:29:28;29.20;93.50
38239;DHT22;24035;48.900;9.188;2022-08-01T15:31:54;29.10;95.10
38239;DHT22;24035;48.900;9.188;2022-08-01T15:34:21;29.20;94.30
38239;DHT22;24035;48.900;9.188;2022-08-01T15:36:46;28.90;93.50
38239;DHT22;24035;48.900;9.188;2022-08-01T15:39:12;28.90;94.40
38239;DHT22;24035;48.900;9.188;2022-08-01T15:41:39;28.70;92.70
38239;DHT22;24035;48.900;9.188;2022-08-01T15:44:04;28.70;94.40
38239;DHT22;24035;48.900;9.188;2022-08-01T15:46:30;28.40;93.80
38239;DHT22;24035;48.900;9.188;2022-08-01T15:48:56;28.40;95.90
38239;DHT22;24035;48.900;9.188;2022-08-01T15:51:21;28.60;94.50
38239;DHT22;24035;48.900;9.188;2022-08-01T15:53:47;28.60;93.20
38239;DHT22;24035;48.900;9.188;2022-08-01T15:56:13;28.60;99.90
38239;DHT22;24035;48.900;9.188;2022-08-01T15:58:39;28.90;93.40
38239;DHT22;24035;48.900;9.188;2022-08-01T16:01:05;29.20;91.80
38239;DHT22;24035;48.900;9.188;2022-08-01T16:03:30;29.10;91.60
38239;DHT22;24035;48.900;9.188;2022-08-01T16:05:56;29.10;90.90
38239;DHT22;24035;48.900;9.188;2022-08-01T16:08:22;28.80;90.60
38239;DHT22;24035;48.900;9.188;2022-08-01T16:10:47;28.40;92.40
38239;DHT22;24035;48.900;9.188;2022-08-01T16:13:13;28.20;93.30
38239;DHT22;24035;48.900;9.188;2022-08-01T16:15:39;28.70;91.80
38239;DHT22;24035;48.900;9.188;2022-08-01T16:21:06;28.50;96.50
38239;DHT22;24035;48.900;9.188;2022-08-01T16:23:32;28.20;96.40
38239;DHT22;24035;48.900;9.188;2022-08-01T16:25:58;28.10;97.60
38239;DHT22;24035;48.900;9.188;2022-08-01T16:28:24;28.10;96.00
38239;DHT22;24035;48.900;9.188;2022-08-01T16:30:50;27.80;95.70
38239;DHT22;24035;48.900;9.188;2022-08-01T16:33:15;27.70;96.70
38239;DHT22;24035;48.900;9.188;2022-08-01T16:35:41;27.90;96.70
38239;DHT22;24035;48.900;9.188;2022-08-01T16:38:10;28.10;95.70
38239;DHT22;24035;48.900;9.188;2022-08-01T16:40:36;27.90;96.90
38239;DHT22;24035;48.900;9.188;2022-08-01T16:43:02;27.60;94.80
38239;DHT22;24035;48.900;9.188;2022-08-01T16:45:28;27.40;96.60
38239;DHT22;24035;48.900;9.188;2022-08-01T16:47:54;27.30;99.00
38239;DHT22;24035;48.900;9.188;2022-08-01T16:50:22;27.30;98.70
38239;DHT22;24035;48.900;9.188;2022-08-01T16:52:48;27.60;99.90
38239;DHT22;24035;48.900;9.188;2022-08-01T16:55:14;27.40;98.30
38239;DHT22;24035;48.900;9.188;2022-08-01T16:57:40;27.30;98.30
38239;DHT22;24035;48.900;9.188;2022-08-01T17:00:10;27.10;98.90
38239;DHT22;24035;48.900;9.188;2022-08-01T17:02:38;27.10;99.90
38239;DHT22;24035;48.900;9.188;2022-08-01T17:05:05;27.00;98.10